createdAt,value
2018-10-17T00:00:54.617Z,100955.00
2018-10-17T00:03:23.765Z,100954.00
2018-10-17T00:05:52.961Z,100952.00
2018-10-17T00:08:22.134Z,100950.00
2018-10-17T00:10:51.308Z,100964.00
2018-10-17T00:13:20.488Z,100963.00
2018-10-17T00:15:49.670Z,100963.00
2018-10-17T00:18:18.828Z,100955.00
2018-10-17T00:20:48.025Z,100957.00
2018-10-17T00:23:17.217Z,100951.00
2018-10-17T00:25:46.363Z,100961.00
2018-10-17T00:28:15.766Z,100959.00
2018-10-17T00:30:44.921Z,100960.00
2018-10-17T00:33:14.080Z,100957.00
2018-10-17T00:36:14.389Z,100949.00
2018-10-17T00:38:43.581Z,100947.00
2018-10-17T00:41:12.822Z,100969.00
2018-10-17T00:43:42.068Z,100974.00
2018-10-17T00:46:11.246Z,100962.00
2018-10-17T00:48:40.419Z,100951.00
2018-10-17T00:51:09.639Z,100955.00
2018-10-17T00:53:38.905Z,100959.00
2018-10-17T00:56:08.602Z,100952.00
2018-10-17T00:58:37.755Z,100950.00
2018-10-17T01:01:06.964Z,100953.00
2018-10-17T01:04:05.245Z,100950.00
2018-10-17T01:06:34.837Z,100953.00
2018-10-17T01:09:07.042Z,100945.00
2018-10-17T01:11:36.676Z,100944.00
2018-10-17T01:14:06.449Z,100953.00
2018-10-17T01:16:35.619Z,100959.00
2018-10-17T01:19:05.275Z,100957.00
2018-10-17T01:21:35.267Z,100938.00
2018-10-17T01:24:04.645Z,100943.00
2018-10-17T01:26:33.941Z,100945.00
2018-10-17T01:29:03.242Z,100949.00
2018-10-17T01:31:33.010Z,100952.00
2018-10-17T01:34:02.245Z,100941.00
2018-10-17T01:36:31.399Z,100933.00
2018-10-17T01:39:00.548Z,100935.00
2018-10-17T01:41:29.757Z,100935.00
2018-10-17T01:43:59.115Z,100945.00
2018-10-17T01:46:28.294Z,100945.00
2018-10-17T01:48:57.539Z,100942.00
2018-10-17T01:51:27.241Z,100939.00
2018-10-17T01:53:56.415Z,100945.00
2018-10-17T01:56:25.596Z,100941.00
2018-10-17T01:58:54.787Z,100944.00
2018-10-17T02:01:24.093Z,100945.00
2018-10-17T02:03:53.310Z,100950.00
2018-10-17T02:06:22.497Z,100962.00
2018-10-17T02:08:51.686Z,100964.00
2018-10-17T02:11:20.885Z,100959.00
2018-10-17T02:14:06.708Z,100948.00
2018-10-17T02:16:35.893Z,100945.00
2018-10-17T02:19:05.319Z,100942.00
2018-10-17T02:21:34.556Z,100934.00
2018-10-17T02:24:03.753Z,100929.00
2018-10-17T02:26:32.938Z,100932.00
2018-10-17T02:29:02.111Z,100940.00
2018-10-17T02:31:31.293Z,100954.00
2018-10-17T02:34:00.489Z,100945.00
2018-10-17T02:36:29.704Z,100949.00
2018-10-17T02:38:58.865Z,100947.00
2018-10-17T02:44:27.898Z,100944.00
2018-10-17T02:46:57.059Z,100939.00
2018-10-17T02:49:26.308Z,100947.00
2018-10-17T02:51:55.463Z,100948.00
2018-10-17T02:54:24.617Z,100951.00
2018-10-17T02:56:53.838Z,100955.00
2018-10-17T02:59:23.010Z,100948.00
2018-10-17T03:02:06.929Z,100949.00
2018-10-17T03:04:36.274Z,100956.00
2018-10-17T03:07:05.480Z,100948.00
2018-10-17T03:09:34.654Z,100945.00
2018-10-17T03:12:03.829Z,100954.00
2018-10-17T03:14:33.003Z,100950.00
2018-10-17T03:17:02.284Z,100949.00
2018-10-17T03:19:31.430Z,100948.00
2018-10-17T03:22:00.606Z,100952.00
2018-10-17T03:24:29.813Z,100943.00
2018-10-17T03:26:58.973Z,100942.00
2018-10-17T03:29:28.305Z,100944.00
2018-10-17T03:32:07.320Z,100945.00
2018-10-17T03:34:36.519Z,100946.00
2018-10-17T03:37:05.980Z,100943.00
2018-10-17T03:39:35.114Z,100958.00
2018-10-17T03:42:04.300Z,100957.00
2018-10-17T03:44:33.501Z,100947.00
2018-10-17T03:47:02.707Z,100949.00
2018-10-17T03:49:31.944Z,100952.00
2018-10-17T03:52:07.119Z,100956.00
2018-10-17T03:55:05.353Z,100956.00
2018-10-17T03:57:34.485Z,100965.00
2018-10-17T04:00:03.670Z,100956.00
2018-10-17T04:02:32.857Z,100947.00
2018-10-17T04:05:13.159Z,100948.00
2018-10-17T04:07:42.648Z,100945.00
2018-10-17T04:10:11.805Z,100946.00
2018-10-17T04:12:40.961Z,100945.00
2018-10-17T04:15:10.337Z,100944.00
2018-10-17T04:17:39.913Z,100950.00
2018-10-17T04:20:09.065Z,100948.00
2018-10-17T04:22:43.067Z,100951.00
2018-10-17T04:25:12.256Z,100949.00
2018-10-17T04:27:41.443Z,100947.00
2018-10-17T04:30:10.626Z,100954.00
2018-10-17T04:32:39.909Z,100957.00
2018-10-17T04:35:09.240Z,100946.00
2018-10-17T04:37:38.388Z,100950.00
2018-10-17T04:40:07.606Z,100952.00
2018-10-17T04:42:36.774Z,100958.00
2018-10-17T04:45:07.698Z,100951.00
2018-10-17T04:50:41.301Z,100944.00
2018-10-17T04:53:10.561Z,100946.00
2018-10-17T04:55:39.684Z,100952.00
2018-10-17T04:58:09.200Z,100952.00
2018-10-17T05:00:38.409Z,100951.00
2018-10-17T05:03:07.590Z,100948.00
2018-10-17T05:05:36.844Z,100949.00
2018-10-17T05:08:06.424Z,100951.00
2018-10-17T05:10:35.619Z,100952.00
2018-10-17T05:13:04.923Z,100957.00
2018-10-17T05:15:34.070Z,100970.00
2018-10-17T05:18:03.237Z,100978.00
2018-10-17T05:20:32.421Z,100982.00
2018-10-17T05:23:01.631Z,100983.00
2018-10-17T05:25:30.779Z,100985.00
2018-10-17T05:27:59.993Z,100985.00
2018-10-17T05:30:29.178Z,100985.00
2018-10-17T05:42:23.402Z,100978.00
2018-10-17T05:45:07.379Z,100975.00
2018-10-17T05:48:05.360Z,100976.00
2018-10-17T06:00:05.608Z,100970.00
2018-10-17T06:15:05.708Z,100987.00
2018-10-17T06:21:05.387Z,100990.00
2018-10-17T06:30:05.770Z,100988.00
2018-10-17T06:50:07.409Z,100984.00
2018-10-17T06:56:05.606Z,100989.00
2018-10-17T07:05:05.837Z,100998.00
2018-10-17T07:14:05.158Z,100998.00
2018-10-17T07:26:05.845Z,100994.00
2018-10-17T07:32:05.383Z,100996.00
2018-10-17T07:41:05.778Z,100999.00
2018-10-17T07:50:05.287Z,100987.00
2018-10-17T08:02:06.265Z,100985.00
2018-10-17T08:08:05.984Z,100989.00
2018-10-17T08:17:05.530Z,100981.00
2018-10-17T08:29:05.826Z,100970.00
2018-10-17T08:35:05.432Z,100976.00
2018-10-17T08:41:05.363Z,100973.00
2018-10-17T08:50:05.706Z,100979.00
2018-10-17T09:02:06.009Z,100970.00
2018-10-17T09:11:05.520Z,100965.00
2018-10-17T09:20:06.180Z,100967.00
2018-10-17T09:26:05.263Z,100965.00
2018-10-17T09:59:08.798Z,100941.00
2018-10-17T10:02:06.956Z,100941.00
2018-10-17T10:08:05.657Z,100930.00
2018-10-17T10:23:06.701Z,100922.00
2018-10-17T10:29:05.372Z,100922.00
2018-10-17T10:31:34.582Z,100923.00
2018-10-17T10:34:10.030Z,100919.00
2018-10-17T10:40:06.173Z,100903.00
2018-10-17T11:06:35.627Z,100882.00
2018-10-17T11:09:07.351Z,100877.00
2018-10-17T11:11:40.422Z,100882.00
2018-10-17T11:14:10.397Z,100876.00
2018-10-17T11:17:05.970Z,100884.00
2018-10-17T11:19:35.141Z,100878.00
2018-10-17T11:22:10.323Z,100872.00
2018-10-17T11:24:39.561Z,100862.00
2018-10-17T11:27:08.774Z,100867.00
2018-10-17T11:29:37.964Z,100868.00
2018-10-17T11:32:07.360Z,100862.00
2018-10-17T11:34:36.629Z,100867.00
2018-10-17T11:37:06.741Z,100852.00
2018-10-17T11:40:05.907Z,100856.00
2018-10-17T11:45:36.063Z,100852.00
2018-10-17T11:48:08.910Z,100855.00
2018-10-17T11:51:07.513Z,100853.00
2018-10-17T11:57:05.919Z,100848.00
2018-10-17T12:03:06.231Z,100849.00
2018-10-17T12:05:35.984Z,100849.00
2018-10-17T12:08:08.213Z,100845.00
2018-10-17T12:13:40.558Z,100847.00
2018-10-17T12:16:09.809Z,100848.00
2018-10-17T12:19:06.453Z,100837.00
2018-10-17T12:25:06.152Z,100831.00
2018-10-17T13:15:29.443Z,100810.00
2018-10-17T13:18:13.913Z,100817.00
2018-10-17T13:21:06.965Z,100814.00
2018-10-17T13:23:51.244Z,100809.00
2018-10-17T13:26:20.459Z,100807.00
2018-10-17T13:28:49.710Z,100816.00
2018-10-17T13:31:38.722Z,100807.00
2018-10-17T13:41:06.717Z,100810.00
2018-10-17T13:53:06.129Z,100805.00
2018-10-17T13:55:35.361Z,100810.00
2018-10-17T14:28:24.063Z,100793.00
2018-10-17T14:34:08.075Z,100796.00
2018-10-17T14:37:06.651Z,100793.00
2018-10-17T14:39:55.698Z,100791.00
2018-10-17T14:54:49.493Z,100785.00
2018-10-17T15:00:20.597Z,100783.00
2018-10-17T15:03:09.006Z,100786.00
2018-10-17T15:06:05.836Z,100790.00
2018-10-17T15:21:05.980Z,100793.00
2018-10-17T15:27:05.739Z,100802.00
2018-10-17T15:36:06.016Z,100800.00
2018-10-17T15:44:51.000Z,100803.00
2018-10-17T15:50:21.467Z,100808.00
2018-10-17T15:53:19.823Z,100809.00
2018-10-17T15:56:09.340Z,100802.00
2018-10-17T16:23:23.289Z,100820.00
2018-10-17T16:26:09.344Z,100815.00
2018-10-17T16:28:51.719Z,100821.00
2018-10-17T16:31:21.650Z,100821.00
2018-10-17T16:37:08.716Z,100816.00
2018-10-17T16:51:31.676Z,100822.00
2018-10-17T16:57:14.449Z,100829.00
2018-10-17T17:00:07.262Z,100836.00
2018-10-17T17:02:40.233Z,100838.00
2018-10-17T17:05:13.052Z,100838.00
2018-10-17T17:28:52.979Z,100856.00
2018-10-17T17:34:36.527Z,100857.00
2018-10-17T17:56:08.641Z,100861.00
2018-10-17T17:59:07.286Z,100869.00
2018-10-17T18:02:06.408Z,100867.00
2018-10-17T18:14:06.585Z,100867.00
2018-10-17T18:20:06.674Z,100870.00
2018-10-17T18:29:06.420Z,100871.00
2018-10-17T18:35:06.226Z,100868.00
2018-10-17T18:47:06.474Z,100873.00
2018-10-17T18:53:06.046Z,100879.00
2018-10-17T19:08:07.197Z,100884.00
2018-10-17T19:16:37.165Z,100888.00
2018-10-17T19:19:10.052Z,100885.00
2018-10-17T19:28:07.285Z,100888.00
2018-10-17T19:36:21.749Z,100875.00
2018-10-17T19:39:11.210Z,100883.00
2018-10-17T19:42:06.589Z,100890.00
2018-10-17T19:47:36.586Z,100894.00
2018-10-17T19:50:09.797Z,100886.00
2018-10-17T19:56:07.641Z,100887.00
2018-10-17T19:59:06.331Z,100887.00
2018-10-17T20:04:35.450Z,100892.00
2018-10-17T20:07:11.161Z,100886.00
2018-10-17T20:10:06.566Z,100879.00
2018-10-17T20:18:36.554Z,100895.00
2018-10-17T20:21:09.369Z,100889.00
2018-10-17T20:24:07.974Z,100899.00
2018-10-17T20:27:05.974Z,100887.00
2018-10-17T20:32:35.073Z,100888.00
2018-10-17T20:35:04.524Z,100892.00
2018-10-17T20:40:34.417Z,100900.00
2018-10-17T20:43:03.918Z,100896.00
2018-10-17T20:45:33.087Z,100895.00
2018-10-17T20:48:02.286Z,100896.00
2018-10-17T20:50:31.455Z,100896.00
2018-10-17T20:53:00.660Z,100894.00
2018-10-17T20:58:30.395Z,100904.00
2018-10-17T21:00:59.595Z,100907.00
2018-10-17T21:03:28.779Z,100896.00
2018-10-17T21:06:08.441Z,100886.00
2018-10-17T21:08:37.755Z,100894.00
2018-10-17T21:11:06.975Z,100890.00
2018-10-17T21:13:36.196Z,100892.00
2018-10-17T21:16:05.846Z,100887.00
2018-10-17T21:18:35.566Z,100895.00
2018-10-17T21:21:04.718Z,100891.00
2018-10-17T21:23:33.960Z,100896.00
2018-10-17T21:26:03.190Z,100898.00
2018-10-17T21:28:32.384Z,100894.00
2018-10-17T21:31:01.837Z,100890.00
2018-10-17T21:36:31.535Z,100890.00
2018-10-17T21:39:00.691Z,100892.00
2018-10-17T21:41:29.836Z,100887.00
2018-10-17T21:43:59.045Z,100890.00
2018-10-17T21:46:28.337Z,100883.00
2018-10-17T21:48:57.587Z,100882.00
2018-10-17T21:51:26.845Z,100888.00
2018-10-17T21:53:56.009Z,100889.00
2018-10-17T21:56:25.186Z,100897.00
2018-10-17T21:58:54.394Z,100902.00
2018-10-17T22:01:23.565Z,100912.00
2018-10-17T22:03:52.831Z,100892.00
2018-10-17T22:06:22.021Z,100889.00
2018-10-17T22:08:51.185Z,100887.00
2018-10-17T22:11:20.451Z,100884.00
2018-10-17T22:13:49.669Z,100898.00
2018-10-17T22:16:19.153Z,100888.00
2018-10-17T22:18:48.390Z,100896.00
2018-10-17T22:21:17.598Z,100893.00
2018-10-17T22:23:46.777Z,100890.00
2018-10-17T22:26:16.032Z,100888.00
2018-10-17T22:28:45.157Z,100898.00
2018-10-17T22:31:14.324Z,100886.00
2018-10-17T22:33:43.503Z,100885.00
2018-10-17T22:36:12.712Z,100891.00
2018-10-17T22:39:07.111Z,100877.00
2018-10-17T22:41:36.311Z,100883.00
2018-10-17T22:44:09.341Z,100887.00
2018-10-17T22:46:38.529Z,100894.00
2018-10-17T22:49:08.693Z,100892.00
2018-10-17T22:51:38.527Z,100892.00
2018-10-17T22:54:08.142Z,100892.00
2018-10-17T22:56:38.121Z,100890.00
2018-10-17T22:59:07.513Z,100884.00
2018-10-17T23:01:37.358Z,100876.00
2018-10-17T23:04:07.515Z,100873.00
2018-10-17T23:06:36.674Z,100881.00
2018-10-17T23:09:11.210Z,100874.00
2018-10-17T23:12:07.097Z,100874.00
2018-10-17T23:14:36.352Z,100884.00
2018-10-17T23:17:06.452Z,100893.00
2018-10-17T23:19:35.603Z,100896.00
2018-10-17T23:22:04.949Z,100883.00
2018-10-17T23:24:34.135Z,100882.00
2018-10-17T23:27:03.309Z,100868.00
2018-10-17T23:29:32.477Z,100872.00
2018-10-17T23:32:08.769Z,100876.00
2018-10-17T23:34:37.957Z,100867.00
2018-10-17T23:37:07.139Z,100879.00
2018-10-17T23:42:36.475Z,100868.00
2018-10-17T23:45:06.932Z,100870.00
2018-10-17T23:47:36.340Z,100880.00
2018-10-17T23:50:05.761Z,100871.00
2018-10-17T23:52:34.864Z,100874.00
2018-10-17T23:55:09.979Z,100880.00
2018-10-17T23:57:39.241Z,100877.00
